KGSP/GSP METAR and TAF weather

Enter ICAO airport designator
Station Type Date Time Source
KGSP METAR 2019/02/16 16:53 UTC NOAA

KGSP 161653Z 07012G18KT 10SM FEW015 SCT021 OVC038 14/10 A2977 RMK AO2 SLP077 T01440100


Station Type Date Time Source
KGSP Decoded METAR 2019/02/16 16:53 UTC NOAA

GREER GREENVILLE SPARTBURG, SC, United States (KGSP) 34-53N 82-13W 286M
Feb 16, 2019 - 11:53 AM EST / 2019.02.16 1653 UTC
Wind: from the ENE (070 degrees) at 14 MPH (12 KT) gusting to 21 MPH (18 KT):0
Visibility: 10 mile(s):0
Sky conditions: overcast
Temperature: 57.9 F (14.4 C)
Dew Point: 50.0 F (10.0 C)
Relative Humidity: 74%
Pressure (altimeter): 29.77 in. Hg (1008 hPa)
ob: KGSP 161653Z 07012G18KT 10SM FEW015 SCT021 OVC038 14/10 A2977 RMK AO2 SLP077 T01440100
cycle: 17

Station Type Date Time Source
KGSP TAF 2019/02/16 15:30 UTC NOAA

TAF
AMD KGSP 161528Z 1615/1712 01006KT P6SM OVC030
TEMPO 1616/1620 SCT030
FM162000 03008KT P6SM BKN030
TEMPO 1622/1702 BKN015
FM170200 05007KT 5SM BR VCSH OVC007 PROB30 1708/1712 2SM -RADZ BR OVC004


Example: see airport list